createdAt,value
2022-12-03T00:00:28.575Z,37.63
2022-12-03T00:03:21.321Z,41.65
2022-12-03T00:05:54.302Z,37.42
2022-12-03T00:08:26.849Z,35.78
2022-12-03T00:10:59.825Z,43.63
2022-12-03T00:13:32.369Z,33.67
2022-12-03T00:16:05.540Z,36.85
2022-12-03T00:18:38.133Z,33.03
2022-12-03T00:21:10.953Z,35.97
2022-12-03T00:23:43.477Z,43.33
2022-12-03T00:26:16.340Z,45.05
2022-12-03T00:28:48.936Z,42.75
2022-12-03T00:31:23.628Z,46.83
2022-12-03T00:33:56.312Z,34.58
2022-12-03T00:36:29.440Z,39.92
2022-12-03T00:39:02.278Z,44.33
2022-12-03T00:41:35.096Z,58.10
2022-12-03T00:44:07.959Z,36.72
2022-12-03T00:46:41.271Z,38.70
2022-12-03T00:49:13.919Z,31.38
2022-12-03T00:51:46.972Z,35.58
2022-12-03T00:54:19.490Z,38.28
2022-12-03T00:56:52.539Z,39.47
2022-12-03T00:59:25.098Z,44.33
2022-12-03T01:01:58.106Z,48.55
2022-12-03T01:04:30.771Z,44.70
2022-12-03T01:07:03.761Z,35.63
2022-12-03T01:09:36.335Z,43.45
2022-12-03T01:12:09.191Z,44.78
2022-12-03T01:14:41.795Z,43.72
2022-12-03T01:17:14.655Z,42.22
2022-12-03T01:19:48.597Z,48.95
2022-12-03T01:22:21.702Z,40.55
2022-12-03T01:24:54.530Z,39.70
2022-12-03T01:27:27.595Z,49.80
2022-12-03T01:30:00.159Z,53.53
2022-12-03T01:32:32.923Z,44.78
2022-12-03T01:35:05.956Z,38.05
2022-12-03T01:37:38.782Z,43.53
2022-12-03T01:40:16.287Z,36.33
2022-12-03T01:42:49.067Z,44.90
2022-12-03T01:45:23.810Z,34.25
2022-12-03T01:47:56.668Z,45.75
2022-12-03T01:50:32.711Z,40.08
2022-12-03T01:53:05.917Z,42.33
2022-12-03T01:55:38.449Z,42.00
2022-12-03T01:58:14.755Z,45.95
2022-12-03T02:00:47.265Z,42.25
2022-12-03T02:03:24.266Z,47.95
2022-12-03T02:05:57.091Z,39.72
2022-12-03T02:08:35.106Z,41.85
2022-12-03T02:11:20.283Z,46.08
2022-12-03T02:13:57.979Z,48.85
2022-12-03T02:16:31.134Z,42.95
2022-12-03T02:19:06.691Z,42.25
2022-12-03T02:22:01.407Z,51.65
2022-12-03T02:24:45.742Z,39.92
2022-12-03T02:27:18.498Z,41.75
2022-12-03T02:29:51.864Z,34.83
2022-12-03T02:32:24.414Z,41.25
2022-12-03T02:34:57.198Z,44.80
2022-12-03T02:37:34.899Z,38.75
2022-12-03T02:40:12.623Z,49.28
2022-12-03T02:42:45.772Z,50.92
2022-12-03T02:45:26.504Z,32.88
2022-12-03T02:50:37.281Z,33.65
2022-12-03T02:53:14.254Z,39.83
2022-12-03T02:55:48.936Z,47.53
2022-12-03T02:58:23.000Z,40.72
2022-12-03T03:00:56.469Z,44.30
2022-12-03T03:03:31.075Z,39.03
2022-12-03T03:06:07.048Z,42.25
2022-12-03T03:08:40.393Z,40.90
2022-12-03T03:11:13.399Z,51.25
2022-12-03T03:13:46.133Z,47.25
2022-12-03T03:16:19.007Z,42.10
2022-12-03T03:18:51.559Z,39.50
2022-12-03T03:21:24.739Z,42.03
2022-12-03T03:23:57.272Z,48.83
2022-12-03T03:26:30.195Z,47.13
2022-12-03T03:29:03.166Z,36.58
2022-12-03T03:31:36.382Z,41.42
2022-12-03T03:34:09.629Z,47.45
2022-12-03T03:36:42.808Z,49.40
2022-12-03T03:39:15.411Z,50.33
2022-12-03T03:41:48.404Z,33.35
2022-12-03T03:44:21.006Z,49.97
2022-12-03T03:46:54.418Z,44.17
2022-12-03T03:49:27.599Z,41.72
2022-12-03T03:52:00.444Z,43.88
2022-12-03T03:54:33.286Z,43.50
2022-12-03T03:57:06.408Z,46.25
2022-12-03T03:59:38.900Z,39.92
2022-12-03T04:02:22.694Z,50.20
2022-12-03T04:04:55.427Z,44.05
2022-12-03T04:07:28.866Z,46.55
2022-12-03T04:10:21.359Z,47.10
2022-12-03T04:12:56.882Z,35.78
2022-12-03T04:15:29.609Z,50.78
2022-12-03T04:18:21.226Z,34.45
2022-12-03T04:21:13.672Z,39.33
2022-12-03T04:23:46.449Z,39.70
2022-12-03T04:26:37.384Z,38.67
2022-12-03T04:29:10.242Z,36.28
2022-12-03T04:32:01.844Z,31.88
2022-12-03T04:34:53.705Z,32.35
2022-12-03T04:37:26.509Z,35.05
2022-12-03T04:39:59.302Z,37.40
2022-12-03T04:42:31.819Z,36.50
2022-12-03T04:45:04.959Z,42.95
2022-12-03T04:47:40.020Z,38.38
2022-12-03T04:50:12.975Z,48.35
2022-12-03T04:52:45.436Z,31.77
2022-12-03T04:55:18.254Z,36.47
2022-12-03T04:57:50.804Z,42.28
2022-12-03T05:00:23.675Z,43.33
2022-12-03T05:02:56.249Z,38.22
2022-12-03T05:05:29.217Z,54.10
2022-12-03T05:08:01.775Z,38.95
2022-12-03T05:10:34.574Z,37.55
2022-12-03T05:13:07.068Z,36.75
2022-12-03T05:15:39.862Z,40.85
2022-12-03T05:18:12.343Z,40.70
2022-12-03T05:20:51.451Z,31.73
2022-12-03T05:25:58.634Z,33.72
2022-12-03T05:28:31.147Z,47.67
2022-12-03T05:31:05.123Z,40.28
2022-12-03T05:33:43.753Z,32.13
2022-12-03T05:36:17.126Z,30.58
2022-12-03T05:38:49.621Z,36.28
2022-12-03T05:41:40.952Z,32.13
2022-12-03T05:44:18.903Z,42.92
2022-12-03T05:46:53.138Z,28.80
2022-12-03T05:49:25.639Z,41.80
2022-12-03T05:51:59.001Z,28.90
2022-12-03T05:54:31.614Z,34.92
2022-12-03T05:57:04.445Z,30.27
2022-12-03T05:59:37.002Z,32.05
2022-12-03T06:02:09.844Z,33.83
2022-12-03T06:04:42.439Z,35.40
2022-12-03T06:07:15.342Z,39.38
2022-12-03T06:09:47.814Z,34.47
2022-12-03T06:12:20.610Z,29.77
2022-12-03T06:14:55.129Z,38.30
2022-12-03T06:17:28.249Z,33.85
2022-12-03T06:20:00.814Z,36.85
2022-12-03T06:22:33.602Z,40.03
2022-12-03T06:25:07.162Z,36.05
2022-12-03T06:27:40.285Z,35.95
2022-12-03T06:30:14.574Z,38.88
2022-12-03T06:32:47.511Z,39.97
2022-12-03T06:35:20.045Z,35.67
2022-12-03T06:37:52.845Z,43.22
2022-12-03T06:40:25.437Z,38.42
2022-12-03T06:42:58.209Z,35.15
2022-12-03T06:45:30.784Z,38.13
2022-12-03T06:48:03.741Z,40.47
2022-12-03T06:50:36.306Z,37.65
2022-12-03T06:53:09.057Z,45.10
2022-12-03T06:55:41.545Z,44.47
2022-12-03T06:58:14.546Z,48.40
2022-12-03T07:00:47.064Z,33.63
2022-12-03T07:03:20.279Z,34.25
2022-12-03T07:05:52.838Z,43.70
2022-12-03T07:08:25.698Z,35.38
2022-12-03T07:10:58.221Z,31.20
2022-12-03T07:13:33.545Z,33.83
2022-12-03T07:16:06.277Z,46.33
2022-12-03T07:18:39.041Z,39.83
2022-12-03T07:21:11.555Z,32.53
2022-12-03T07:23:44.583Z,41.15
2022-12-03T07:26:17.139Z,38.03
2022-12-03T07:28:52.246Z,47.75
2022-12-03T07:31:25.060Z,43.42
2022-12-03T07:33:57.985Z,45.92
2022-12-03T07:36:30.593Z,41.55
2022-12-03T07:39:03.594Z,41.80
2022-12-03T07:41:36.163Z,43.08
2022-12-03T07:44:13.971Z,32.40
2022-12-03T07:46:47.233Z,39.13
2022-12-03T07:49:20.191Z,42.08
2022-12-03T07:52:07.950Z,49.78
2022-12-03T07:54:40.710Z,57.03
2022-12-03T07:57:13.288Z,48.28
2022-12-03T07:59:46.398Z,49.53
2022-12-03T08:02:21.634Z,49.70
2022-12-03T08:04:55.879Z,49.88
2022-12-03T08:07:28.570Z,38.53
2022-12-03T08:10:01.706Z,42.45
2022-12-03T08:12:40.407Z,47.85
2022-12-03T08:15:16.444Z,42.15
2022-12-03T08:17:55.946Z,48.33
2022-12-03T08:20:39.898Z,41.40
2022-12-03T08:23:20.889Z,40.88
2022-12-03T08:25:53.768Z,44.35
2022-12-03T08:28:27.162Z,46.58
2022-12-03T08:31:26.895Z,48.72
2022-12-03T08:34:23.681Z,46.72
2022-12-03T08:37:05.839Z,46.03
2022-12-03T08:39:56.221Z,40.50
2022-12-03T08:42:42.855Z,40.83
2022-12-03T08:45:32.023Z,48.15
2022-12-03T08:48:19.658Z,44.53
2022-12-03T08:50:54.528Z,46.95
2022-12-03T08:53:36.219Z,44.13
2022-12-03T08:56:20.925Z,43.00
2022-12-03T08:59:00.719Z,49.85
2022-12-03T09:01:44.446Z,50.57
2022-12-03T09:04:38.706Z,49.92
2022-12-03T09:07:11.259Z,49.35
2022-12-03T09:09:44.162Z,54.00
2022-12-03T09:12:19.965Z,43.65
2022-12-03T09:14:52.959Z,43.95
2022-12-03T09:17:25.602Z,47.15
2022-12-03T09:19:58.405Z,51.05
2022-12-03T09:22:31.089Z,54.38
2022-12-03T09:25:07.514Z,48.10
2022-12-03T09:27:40.024Z,48.05
2022-12-03T09:30:13.442Z,49.47
2022-12-03T09:32:45.975Z,50.03
2022-12-03T09:35:18.872Z,56.15
2022-12-03T09:37:51.489Z,48.90
2022-12-03T09:40:24.534Z,48.78
2022-12-03T09:42:59.756Z,54.33
2022-12-03T09:45:32.678Z,53.38
2022-12-03T09:48:05.373Z,52.47
2022-12-03T09:50:41.762Z,49.70
2022-12-03T09:53:18.585Z,48.25
2022-12-03T09:55:51.831Z,56.58
2022-12-03T09:58:31.701Z,53.85
2022-12-03T10:01:13.792Z,50.15
2022-12-03T10:03:51.294Z,60.83
2022-12-03T10:06:24.296Z,50.40
2022-12-03T10:08:57.127Z,53.30
2022-12-03T10:11:31.037Z,61.85
2022-12-03T10:14:04.473Z,54.10
2022-12-03T10:16:41.157Z,62.05
2022-12-03T10:19:21.908Z,64.00
2022-12-03T10:21:56.069Z,53.65
2022-12-03T10:24:31.727Z,60.22
2022-12-03T10:27:29.679Z,60.53
2022-12-03T10:30:05.387Z,38.78
2022-12-03T10:32:44.895Z,61.40
2022-12-03T10:35:43.652Z,56.42
2022-12-03T10:38:24.889Z,58.50
2022-12-03T10:40:57.644Z,57.80
2022-12-03T10:43:30.452Z,50.85
2022-12-03T10:46:04.528Z,57.13
2022-12-03T10:48:38.784Z,57.40
2022-12-03T10:51:21.882Z,53.08
2022-12-03T10:53:54.693Z,55.25
2022-12-03T10:56:27.850Z,66.15
2022-12-03T10:59:00.693Z,52.33
2022-12-03T11:01:33.305Z,56.67
2022-12-03T11:04:06.371Z,57.13
2022-12-03T11:06:39.015Z,60.20
2022-12-03T11:09:26.870Z,58.40
2022-12-03T11:12:07.442Z,59.03
2022-12-03T11:14:56.848Z,54.40
2022-12-03T11:17:41.231Z,54.85
2022-12-03T11:20:22.884Z,54.88
2022-12-03T11:22:59.718Z,61.42
2022-12-03T11:25:47.379Z,57.88
2022-12-03T11:28:19.960Z,60.47
2022-12-03T11:30:56.757Z,55.05
2022-12-03T11:33:34.857Z,56.08
2022-12-03T11:36:12.529Z,55.05
2022-12-03T11:38:52.906Z,52.50
2022-12-03T11:41:35.304Z,50.90
2022-12-03T11:44:30.592Z,47.92
2022-12-03T11:47:14.066Z,47.28
2022-12-03T11:49:47.856Z,52.20
2022-12-03T11:52:27.524Z,48.90
2022-12-03T11:55:13.910Z,53.25
2022-12-03T11:57:47.132Z,58.95
2022-12-03T12:00:24.573Z,52.03
2022-12-03T12:02:58.448Z,58.00
2022-12-03T12:05:33.396Z,58.42
2022-12-03T12:08:17.889Z,53.15
2022-12-03T12:10:50.515Z,51.47
2022-12-03T12:13:32.372Z,55.92
2022-12-03T12:16:06.951Z,50.03
2022-12-03T12:18:55.129Z,49.83
2022-12-03T12:21:44.316Z,52.45
2022-12-03T13:09:55.668Z,47.80
2022-12-03T13:12:31.537Z,57.75
2022-12-03T13:15:18.932Z,58.53
2022-12-03T13:17:51.786Z,56.90
2022-12-03T13:20:24.692Z,42.92
2022-12-03T13:22:57.714Z,48.72
2022-12-03T13:25:59.317Z,51.80
2022-12-03T13:28:31.575Z,46.85
2022-12-03T13:31:23.257Z,49.08
2022-12-03T13:33:56.964Z,52.28
2022-12-03T13:36:50.539Z,52.35
2022-12-03T13:39:37.214Z,48.85
2022-12-03T13:42:38.898Z,65.43
2022-12-03T13:45:14.697Z,59.42
2022-12-03T13:47:59.413Z,58.30
2022-12-03T13:50:44.572Z,59.50
2022-12-03T13:53:28.272Z,48.78
2022-12-03T13:56:27.571Z,53.13
2022-12-03T13:59:01.332Z,52.10
2022-12-03T14:01:34.681Z,58.22
2022-12-03T14:04:07.175Z,65.13
2022-12-03T14:06:40.176Z,59.53
2022-12-03T14:09:12.827Z,50.67
2022-12-03T14:12:04.370Z,59.95
2022-12-03T14:14:36.841Z,58.40
2022-12-03T14:17:11.737Z,78.35
2022-12-03T14:19:44.793Z,62.28
2022-12-03T14:22:19.439Z,58.65
2022-12-03T14:24:52.835Z,60.78
2022-12-03T14:27:25.718Z,61.15
2022-12-03T14:29:58.311Z,68.43
2022-12-03T14:32:31.114Z,66.97
2022-12-03T14:35:09.761Z,71.03
2022-12-03T14:37:42.893Z,67.75
2022-12-03T14:40:21.165Z,64.43
2022-12-03T14:42:54.640Z,55.33
2022-12-03T14:45:28.849Z,62.80
2022-12-03T14:48:02.029Z,61.95
2022-12-03T14:50:34.517Z,63.88
2022-12-03T14:53:07.331Z,62.67
2022-12-03T14:55:39.802Z,61.42
2022-12-03T14:58:12.898Z,63.80
2022-12-03T15:00:45.394Z,61.22
2022-12-03T15:03:18.362Z,57.28
2022-12-03T15:05:50.862Z,55.22
2022-12-03T15:08:23.613Z,66.25
2022-12-03T15:10:56.343Z,57.05
2022-12-03T15:13:29.211Z,63.75
2022-12-03T15:16:01.755Z,57.55
2022-12-03T15:18:34.986Z,53.97
2022-12-03T15:21:07.598Z,56.35
2022-12-03T15:23:40.427Z,55.65
2022-12-03T15:26:13.044Z,47.55
2022-12-03T15:28:48.419Z,68.13
2022-12-03T15:31:23.043Z,60.97
2022-12-03T15:33:56.219Z,65.55
2022-12-03T15:36:28.803Z,60.78
2022-12-03T15:39:01.671Z,75.85
2022-12-03T15:41:34.251Z,57.42
2022-12-03T15:44:07.059Z,55.25
2022-12-03T15:46:39.592Z,60.42
2022-12-03T15:49:12.499Z,61.20
2022-12-03T15:51:45.017Z,54.47
2022-12-03T15:54:17.818Z,60.03
2022-12-03T15:56:55.529Z,65.78
2022-12-03T15:59:30.167Z,60.03
2022-12-03T16:02:02.786Z,55.70
2022-12-03T16:04:35.756Z,57.72
2022-12-03T16:07:09.507Z,54.30
2022-12-03T16:09:42.338Z,58.10
2022-12-03T16:12:14.816Z,56.72
2022-12-03T16:14:47.578Z,63.45
2022-12-03T16:17:20.309Z,52.28
2022-12-03T16:19:53.349Z,59.97
2022-12-03T16:22:26.032Z,58.50
2022-12-03T16:24:58.939Z,59.13
2022-12-03T16:27:31.467Z,68.60
2022-12-03T16:30:06.347Z,58.47
2022-12-03T16:32:39.327Z,64.45
2022-12-03T16:35:12.142Z,63.45
2022-12-03T16:37:44.756Z,51.45
2022-12-03T16:40:17.683Z,53.00
2022-12-03T16:42:50.205Z,61.22
2022-12-03T16:45:33.981Z,55.33
2022-12-03T16:48:06.588Z,58.03
2022-12-03T16:50:40.042Z,58.70
2022-12-03T16:53:13.255Z,62.83
2022-12-03T16:55:45.994Z,58.38
2022-12-03T16:58:21.286Z,57.22
2022-12-03T17:00:54.321Z,57.88
2022-12-03T17:03:33.395Z,65.07
2022-12-03T17:06:07.009Z,64.22
2022-12-03T17:08:41.065Z,61.15
2022-12-03T17:11:17.918Z,60.72
2022-12-03T17:13:50.407Z,55.92
2022-12-03T17:16:23.390Z,56.60
2022-12-03T17:18:56.376Z,53.40
2022-12-03T17:21:33.572Z,64.15
2022-12-03T17:24:07.752Z,58.60
2022-12-03T17:26:42.031Z,59.60
2022-12-03T17:29:14.636Z,57.97
2022-12-03T17:31:47.446Z,64.28
2022-12-03T17:34:19.968Z,65.55
2022-12-03T17:36:52.726Z,65.10
2022-12-03T17:39:25.261Z,73.03
2022-12-03T17:41:58.197Z,59.35
2022-12-03T17:44:30.910Z,57.78
2022-12-03T17:47:03.826Z,59.42
2022-12-03T17:49:36.516Z,60.40
2022-12-03T17:52:09.443Z,58.45
2022-12-03T17:55:08.970Z,63.03
2022-12-03T17:57:34.726Z,59.25
2022-12-03T18:00:08.031Z,63.45
2022-12-03T18:02:40.887Z,61.38
2022-12-03T18:05:14.207Z,75.00
2022-12-03T18:07:47.248Z,67.97
2022-12-03T18:10:19.814Z,67.32
2022-12-03T18:12:54.882Z,65.50
2022-12-03T18:15:31.702Z,66.03
2022-12-03T18:18:04.608Z,55.83
2022-12-03T18:20:37.692Z,70.25
2022-12-03T18:23:10.530Z,66.80
2022-12-03T18:25:43.122Z,73.20
2022-12-03T18:28:15.846Z,79.90
2022-12-03T18:30:52.534Z,61.80
2022-12-03T18:33:26.626Z,87.63
2022-12-03T18:35:59.211Z,69.30
2022-12-03T18:38:33.985Z,80.63
2022-12-03T18:41:06.531Z,75.57
2022-12-03T18:43:42.443Z,74.15
2022-12-03T18:46:45.086Z,78.25
2022-12-03T18:49:09.477Z,76.07
2022-12-03T18:51:41.933Z,65.40
2022-12-03T18:54:14.949Z,76.63
2022-12-03T18:56:47.422Z,82.32
2022-12-03T18:59:20.214Z,76.60
2022-12-03T19:01:52.802Z,87.30
2022-12-03T19:04:25.753Z,72.95
2022-12-03T19:06:58.458Z,83.50
2022-12-03T19:09:31.189Z,71.85
2022-12-03T19:12:03.853Z,64.40
2022-12-03T19:14:36.904Z,73.10
2022-12-03T19:17:09.784Z,68.13
2022-12-03T19:19:42.529Z,82.65
2022-12-03T19:22:15.005Z,75.00
2022-12-03T19:24:47.760Z,76.30
2022-12-03T19:27:20.315Z,80.50
2022-12-03T19:29:53.389Z,84.93
2022-12-03T19:32:26.278Z,78.28
2022-12-03T19:35:01.061Z,95.38
2022-12-03T19:37:34.021Z,73.03
2022-12-03T19:40:07.705Z,76.93
2022-12-03T19:42:40.386Z,74.65
2022-12-03T19:45:13.386Z,81.82
2022-12-03T19:47:45.848Z,74.82
2022-12-03T19:50:23.048Z,76.57
2022-12-03T19:52:56.590Z,99.88
2022-12-03T19:55:29.365Z,77.28
2022-12-03T19:58:01.841Z,71.97
2022-12-03T20:00:35.775Z,75.75
2022-12-03T20:03:08.392Z,88.63
2022-12-03T20:05:41.470Z,83.57
2022-12-03T20:08:14.064Z,86.80
2022-12-03T20:10:46.867Z,75.85
2022-12-03T20:13:19.340Z,73.00
2022-12-03T20:15:52.088Z,73.80
2022-12-03T20:18:24.542Z,91.53
2022-12-03T20:20:59.128Z,81.10
2022-12-03T20:23:31.674Z,83.15
2022-12-03T20:26:12.183Z,80.25
2022-12-03T20:28:45.507Z,80.22
2022-12-03T20:31:20.508Z,78.78
2022-12-03T20:33:56.543Z,76.45
2022-12-03T20:36:30.981Z,95.22
2022-12-03T20:39:05.933Z,84.72
2022-12-03T20:41:38.757Z,87.68
2022-12-03T20:44:11.283Z,81.88
2022-12-03T20:46:44.111Z,82.38
2022-12-03T20:49:16.736Z,85.05
2022-12-03T20:51:50.358Z,91.00
2022-12-03T20:54:22.987Z,99.75
2022-12-03T20:56:55.743Z,80.85
2022-12-03T20:59:28.190Z,79.45
2022-12-03T21:02:01.336Z,76.75
2022-12-03T21:04:34.045Z,80.43
2022-12-03T21:07:06.826Z,80.63
2022-12-03T21:09:39.337Z,85.88
2022-12-03T21:12:12.078Z,80.00
2022-12-03T21:14:44.626Z,75.53
2022-12-03T21:17:17.731Z,88.75
2022-12-03T21:19:52.622Z,81.93
2022-12-03T21:22:25.728Z,77.97
2022-12-03T21:24:58.187Z,90.05
2022-12-03T21:27:31.163Z,79.30
2022-12-03T21:30:04.123Z,77.70
2022-12-03T21:32:36.932Z,81.72
2022-12-03T21:35:09.712Z,91.30
2022-12-03T21:37:42.512Z,89.07
2022-12-03T21:40:15.603Z,74.07
2022-12-03T21:42:48.689Z,86.90
2022-12-03T21:45:21.411Z,82.80
2022-12-03T21:47:54.309Z,79.57
2022-12-03T21:50:26.863Z,79.65
2022-12-03T21:52:59.701Z,95.07
2022-12-03T21:55:32.409Z,80.13
2022-12-03T21:58:05.163Z,86.85
2022-12-03T22:00:40.258Z,87.43
2022-12-03T22:03:13.120Z,85.55
2022-12-03T22:05:45.667Z,78.75
2022-12-03T22:08:18.648Z,77.35
2022-12-03T22:10:51.237Z,95.20
2022-12-03T22:13:24.020Z,81.82
2022-12-03T22:15:56.511Z,82.47
2022-12-03T22:18:29.312Z,106.40
2022-12-03T22:21:07.403Z,88.40
2022-12-03T22:23:40.226Z,78.28
2022-12-03T22:26:15.095Z,88.53
2022-12-03T22:28:49.814Z,77.72
2022-12-03T22:31:22.349Z,84.10
2022-12-03T22:33:55.261Z,77.28
2022-12-03T22:36:27.742Z,82.68
2022-12-03T22:39:00.530Z,84.60
2022-12-03T22:41:36.069Z,74.78
2022-12-03T22:44:08.921Z,98.13
2022-12-03T22:46:41.547Z,81.30
2022-12-03T22:49:14.422Z,67.22
2022-12-03T22:51:47.452Z,87.90
2022-12-03T22:54:23.926Z,81.60
2022-12-03T22:56:59.447Z,91.32
2022-12-03T22:59:32.271Z,77.63
2022-12-03T23:02:04.833Z,79.50
2022-12-03T23:04:37.635Z,83.53
2022-12-03T23:07:10.172Z,81.28
2022-12-03T23:09:45.351Z,77.57
2022-12-03T23:12:18.060Z,83.63
2022-12-03T23:14:56.708Z,85.80
2022-12-03T23:17:29.262Z,88.80
2022-12-03T23:20:03.559Z,75.50
2022-12-03T23:22:36.046Z,83.07
2022-12-03T23:25:11.385Z,72.53
2022-12-03T23:27:44.625Z,79.85
2022-12-03T23:30:17.459Z,78.03
2022-12-03T23:32:51.804Z,77.07
2022-12-03T23:35:24.572Z,88.50
2022-12-03T23:37:57.178Z,81.10
2022-12-03T23:40:29.924Z,70.65
2022-12-03T23:43:02.541Z,84.20
2022-12-03T23:45:35.385Z,77.68
2022-12-03T23:48:07.899Z,78.65
2022-12-03T23:50:41.398Z,78.07
2022-12-03T23:53:13.984Z,77.28
2022-12-03T23:55:46.739Z,78.07
2022-12-03T23:58:19.212Z,79.57
